sensor_id;sensor_type;location;lat;lon;timestamp;temperature;humidity
48328;DHT22;34136;51.022;7.082;2022-09-01T00:00:59;19.10;1.00
48328;DHT22;34136;51.022;7.082;2022-09-01T00:03:48;19.10;1.00
48328;DHT22;34136;51.022;7.082;2022-09-01T00:06:35;19.00;1.00
48328;DHT22;34136;51.022;7.082;2022-09-01T00:09:22;19.00;1.00
48328;DHT22;34136;51.022;7.082;2022-09-01T00:12:09;19.00;1.00
48328;DHT22;34136;51.022;7.082;2022-09-01T00:14:56;19.00;1.00
48328;DHT22;34136;51.022;7.082;2022-09-01T00:17:42;18.90;1.00
48328;DHT22;34136;51.022;7.082;2022-09-01T00:20:29;18.90;1.00
48328;DHT22;34136;51.022;7.082;2022-09-01T00:23:15;18.90;1.00
48328;DHT22;34136;51.022;7.082;2022-09-01T00:26:23;18.90;1.00
48328;DHT22;34136;51.022;7.082;2022-09-01T00:29:10;19.00;1.00
48328;DHT22;34136;51.022;7.082;2022-09-01T00:31:56;19.00;1.00
48328;DHT22;34136;51.022;7.082;2022-09-01T00:34:43;19.10;1.00
48328;DHT22;34136;51.022;7.082;2022-09-01T00:37:29;19.10;1.00
48328;DHT22;34136;51.022;7.082;2022-09-01T00:40:16;19.10;1.00
48328;DHT22;34136;51.022;7.082;2022-09-01T00:43:15;19.10;1.00
48328;DHT22;34136;51.022;7.082;2022-09-01T00:46:08;19.00;1.00
48328;DHT22;34136;51.022;7.082;2022-09-01T00:48:58;19.00;1.00
48328;DHT22;34136;51.022;7.082;2022-09-01T00:51:52;19.00;1.00
48328;DHT22;34136;51.022;7.082;2022-09-01T00:54:44;18.90;1.00
48328;DHT22;34136;51.022;7.082;2022-09-01T00:57:32;19.00;1.00
48328;DHT22;34136;51.022;7.082;2022-09-01T01:00:26;19.00;1.00
48328;DHT22;34136;51.022;7.082;2022-09-01T01:03:13;19.00;1.00
48328;DHT22;34136;51.022;7.082;2022-09-01T01:06:04;19.00;1.00
48328;DHT22;34136;51.022;7.082;2022-09-01T01:08:51;19.00;1.00
48328;DHT22;34136;51.022;7.082;2022-09-01T01:11:37;19.00;1.00
48328;DHT22;34136;51.022;7.082;2022-09-01T01:14:25;18.80;1.00
48328;DHT22;34136;51.022;7.082;2022-09-01T01:17:13;18.80;1.00
48328;DHT22;34136;51.022;7.082;2022-09-01T01:19:59;18.80;1.00
48328;DHT22;34136;51.022;7.082;2022-09-01T01:23:09;18.80;1.00
48328;DHT22;34136;51.022;7.082;2022-09-01T01:25:59;18.90;1.00
48328;DHT22;34136;51.022;7.082;2022-09-01T01:28:47;18.80;1.00
48328;DHT22;34136;51.022;7.082;2022-09-01T01:31:34;18.80;1.00
48328;DHT22;34136;51.022;7.082;2022-09-01T01:34:20;18.80;1.00
48328;DHT22;34136;51.022;7.082;2022-09-01T01:37:07;18.80;1.00
48328;DHT22;34136;51.022;7.082;2022-09-01T01:39:53;18.70;1.00
48328;DHT22;34136;51.022;7.082;2022-09-01T01:42:43;18.70;1.00
48328;DHT22;34136;51.022;7.082;2022-09-01T01:45:30;18.70;1.00
48328;DHT22;34136;51.022;7.082;2022-09-01T01:48:21;18.60;1.00
48328;DHT22;34136;51.022;7.082;2022-09-01T01:51:09;18.60;1.00
48328;DHT22;34136;51.022;7.082;2022-09-01T01:53:56;18.70;1.00
48328;DHT22;34136;51.022;7.082;2022-09-01T01:56:42;18.70;1.00
48328;DHT22;34136;51.022;7.082;2022-09-01T01:59:29;18.70;1.00
48328;DHT22;34136;51.022;7.082;2022-09-01T02:02:16;18.70;1.00
48328;DHT22;34136;51.022;7.082;2022-09-01T02:05:02;18.70;1.00
48328;DHT22;34136;51.022;7.082;2022-09-01T02:07:51;18.70;1.00
48328;DHT22;34136;51.022;7.082;2022-09-01T02:10:44;18.70;1.00
48328;DHT22;34136;51.022;7.082;2022-09-01T02:13:31;18.70;1.00
48328;DHT22;34136;51.022;7.082;2022-09-01T02:16:17;18.60;1.00
48328;DHT22;34136;51.022;7.082;2022-09-01T02:19:05;18.70;1.00
48328;DHT22;34136;51.022;7.082;2022-09-01T02:21:53;18.60;1.00
48328;DHT22;34136;51.022;7.082;2022-09-01T02:24:39;18.60;1.00
48328;DHT22;34136;51.022;7.082;2022-09-01T02:27:25;18.60;1.00
48328;DHT22;34136;51.022;7.082;2022-09-01T02:30:13;18.60;1.00
48328;DHT22;34136;51.022;7.082;2022-09-01T02:32:59;18.50;1.00
48328;DHT22;34136;51.022;7.082;2022-09-01T02:35:48;18.40;1.00
48328;DHT22;34136;51.022;7.082;2022-09-01T02:38:35;18.20;1.00
48328;DHT22;34136;51.022;7.082;2022-09-01T02:41:21;18.20;1.00
48328;DHT22;34136;51.022;7.082;2022-09-01T02:44:07;18.20;1.00
48328;DHT22;34136;51.022;7.082;2022-09-01T02:46:54;18.20;1.00
48328;DHT22;34136;51.022;7.082;2022-09-01T02:49:42;18.10;1.00
48328;DHT22;34136;51.022;7.082;2022-09-01T02:52:28;18.20;1.00
48328;DHT22;34136;51.022;7.082;2022-09-01T02:55:15;18.20;1.00
48328;DHT22;34136;51.022;7.082;2022-09-01T02:58:02;18.20;1.00
48328;DHT22;34136;51.022;7.082;2022-09-01T03:00:52;18.20;1.00
48328;DHT22;34136;51.022;7.082;2022-09-01T03:03:40;18.20;1.00
48328;DHT22;34136;51.022;7.082;2022-09-01T03:06:28;18.20;1.00
48328;DHT22;34136;51.022;7.082;2022-09-01T03:09:16;18.30;1.00
48328;DHT22;34136;51.022;7.082;2022-09-01T03:12:03;18.30;1.00
48328;DHT22;34136;51.022;7.082;2022-09-01T03:14:49;18.20;1.00
48328;DHT22;34136;51.022;7.082;2022-09-01T03:17:35;18.20;1.00
48328;DHT22;34136;51.022;7.082;2022-09-01T03:20:22;18.20;1.00
48328;DHT22;34136;51.022;7.082;2022-09-01T03:23:10;18.20;1.00
48328;DHT22;34136;51.022;7.082;2022-09-01T03:25:57;18.10;1.00
48328;DHT22;34136;51.022;7.082;2022-09-01T03:28:45;18.10;1.00
48328;DHT22;34136;51.022;7.082;2022-09-01T03:31:31;17.90;1.00
48328;DHT22;34136;51.022;7.082;2022-09-01T03:34:20;17.90;1.00
48328;DHT22;34136;51.022;7.082;2022-09-01T03:37:08;17.80;1.00
48328;DHT22;34136;51.022;7.082;2022-09-01T03:39:54;17.60;1.00
48328;DHT22;34136;51.022;7.082;2022-09-01T03:42:41;17.60;1.00
48328;DHT22;34136;51.022;7.082;2022-09-01T03:45:29;17.70;1.00
48328;DHT22;34136;51.022;7.082;2022-09-01T03:48:15;17.60;1.00
48328;DHT22;34136;51.022;7.082;2022-09-01T03:51:01;17.40;1.00
48328;DHT22;34136;51.022;7.082;2022-09-01T03:53:51;17.30;1.00
48328;DHT22;34136;51.022;7.082;2022-09-01T03:56:38;17.30;1.00
48328;DHT22;34136;51.022;7.082;2022-09-01T03:59:25;17.30;1.00
48328;DHT22;34136;51.022;7.082;2022-09-01T04:02:11;17.30;1.00
48328;DHT22;34136;51.022;7.082;2022-09-01T04:04:58;17.20;1.00
48328;DHT22;34136;51.022;7.082;2022-09-01T04:07:44;16.90;1.00
48328;DHT22;34136;51.022;7.082;2022-09-01T04:10:32;16.90;1.00
48328;DHT22;34136;51.022;7.082;2022-09-01T04:13:21;16.90;1.00
48328;DHT22;34136;51.022;7.082;2022-09-01T04:16:20;16.90;1.00
48328;DHT22;34136;51.022;7.082;2022-09-01T04:19:06;16.70;1.00
48328;DHT22;34136;51.022;7.082;2022-09-01T04:21:56;16.60;1.00
48328;DHT22;34136;51.022;7.082;2022-09-01T04:24:45;16.70;1.00
48328;DHT22;34136;51.022;7.082;2022-09-01T04:27:31;16.70;1.00
48328;DHT22;34136;51.022;7.082;2022-09-01T04:30:18;16.50;1.00
48328;DHT22;34136;51.022;7.082;2022-09-01T04:33:11;16.40;1.00
48328;DHT22;34136;51.022;7.082;2022-09-01T04:35:58;16.30;1.00
48328;DHT22;34136;51.022;7.082;2022-09-01T04:38:50;16.30;1.00
48328;DHT22;34136;51.022;7.082;2022-09-01T04:41:40;16.20;1.00
48328;DHT22;34136;51.022;7.082;2022-09-01T04:44:27;16.20;1.00
48328;DHT22;34136;51.022;7.082;2022-09-01T04:47:14;16.00;1.00
48328;DHT22;34136;51.022;7.082;2022-09-01T04:50:01;16.10;1.00
48328;DHT22;34136;51.022;7.082;2022-09-01T04:52:47;16.20;1.00
48328;DHT22;34136;51.022;7.082;2022-09-01T04:55:47;16.30;1.00
48328;DHT22;34136;51.022;7.082;2022-09-01T04:58:33;16.30;1.00
48328;DHT22;34136;51.022;7.082;2022-09-01T05:01:23;16.30;1.00
48328;DHT22;34136;51.022;7.082;2022-09-01T05:04:13;16.20;1.00
48328;DHT22;34136;51.022;7.082;2022-09-01T05:07:01;16.00;1.00
48328;DHT22;34136;51.022;7.082;2022-09-01T05:09:53;15.90;1.00
48328;DHT22;34136;51.022;7.082;2022-09-01T05:13:02;15.80;1.00
48328;DHT22;34136;51.022;7.082;2022-09-01T05:16:03;15.80;1.00
48328;DHT22;34136;51.022;7.082;2022-09-01T05:18:51;15.80;1.00
48328;DHT22;34136;51.022;7.082;2022-09-01T05:21:38;15.80;1.00
48328;DHT22;34136;51.022;7.082;2022-09-01T05:24:27;15.60;1.00
48328;DHT22;34136;51.022;7.082;2022-09-01T05:27:14;15.60;1.00
48328;DHT22;34136;51.022;7.082;2022-09-01T05:30:03;15.70;1.00
48328;DHT22;34136;51.022;7.082;2022-09-01T05:32:50;15.60;1.00
48328;DHT22;34136;51.022;7.082;2022-09-01T05:35:40;15.60;1.00
48328;DHT22;34136;51.022;7.082;2022-09-01T05:38:27;15.60;1.00
48328;DHT22;34136;51.022;7.082;2022-09-01T05:41:15;15.60;1.00
48328;DHT22;34136;51.022;7.082;2022-09-01T05:44:03;15.60;1.00
48328;DHT22;34136;51.022;7.082;2022-09-01T05:46:50;15.50;1.00
48328;DHT22;34136;51.022;7.082;2022-09-01T05:49:36;15.50;1.00
48328;DHT22;34136;51.022;7.082;2022-09-01T05:52:23;15.60;1.00
48328;DHT22;34136;51.022;7.082;2022-09-01T05:55:10;15.70;1.00
48328;DHT22;34136;51.022;7.082;2022-09-01T05:57:59;15.70;1.00
48328;DHT22;34136;51.022;7.082;2022-09-01T06:00:46;15.80;1.00
48328;DHT22;34136;51.022;7.082;2022-09-01T06:03:32;15.80;1.00
48328;DHT22;34136;51.022;7.082;2022-09-01T06:06:21;15.90;1.00
48328;DHT22;34136;51.022;7.082;2022-09-01T06:09:09;16.00;1.00
48328;DHT22;34136;51.022;7.082;2022-09-01T06:11:55;16.10;1.00
48328;DHT22;34136;51.022;7.082;2022-09-01T06:14:45;16.20;1.00
48328;DHT22;34136;51.022;7.082;2022-09-01T06:17:34;16.30;1.00
48328;DHT22;34136;51.022;7.082;2022-09-01T06:20:21;16.40;1.00
48328;DHT22;34136;51.022;7.082;2022-09-01T06:23:08;16.40;1.00
48328;DHT22;34136;51.022;7.082;2022-09-01T06:25:55;16.40;1.00
48328;DHT22;34136;51.022;7.082;2022-09-01T06:28:43;16.50;1.00
48328;DHT22;34136;51.022;7.082;2022-09-01T06:31:32;16.60;1.00
48328;DHT22;34136;51.022;7.082;2022-09-01T06:34:24;16.60;1.00
48328;DHT22;34136;51.022;7.082;2022-09-01T06:37:11;16.70;1.00
48328;DHT22;34136;51.022;7.082;2022-09-01T06:39:58;16.80;1.00
48328;DHT22;34136;51.022;7.082;2022-09-01T06:42:49;17.00;1.00
48328;DHT22;34136;51.022;7.082;2022-09-01T06:45:44;17.20;1.00
48328;DHT22;34136;51.022;7.082;2022-09-01T06:48:31;17.50;1.00
48328;DHT22;34136;51.022;7.082;2022-09-01T06:51:22;17.80;1.00
48328;DHT22;34136;51.022;7.082;2022-09-01T06:54:11;18.10;1.00
48328;DHT22;34136;51.022;7.082;2022-09-01T06:56:57;18.40;1.00
48328;DHT22;34136;51.022;7.082;2022-09-01T06:59:44;18.60;1.00
48328;DHT22;34136;51.022;7.082;2022-09-01T07:02:30;18.90;1.00
48328;DHT22;34136;51.022;7.082;2022-09-01T07:05:49;19.20;1.00
48328;DHT22;34136;51.022;7.082;2022-09-01T07:08:37;19.50;1.00
48328;DHT22;34136;51.022;7.082;2022-09-01T07:11:29;19.70;1.00
48328;DHT22;34136;51.022;7.082;2022-09-01T07:14:16;19.80;1.00
48328;DHT22;34136;51.022;7.082;2022-09-01T07:17:02;20.00;1.00
48328;DHT22;34136;51.022;7.082;2022-09-01T07:19:49;20.30;1.00
48328;DHT22;34136;51.022;7.082;2022-09-01T07:22:35;20.60;1.00
48328;DHT22;34136;51.022;7.082;2022-09-01T07:25:21;20.50;1.00
48328;DHT22;34136;51.022;7.082;2022-09-01T07:28:25;20.60;1.00
48328;DHT22;34136;51.022;7.082;2022-09-01T07:31:18;20.80;1.00
48328;DHT22;34136;51.022;7.082;2022-09-01T07:34:07;20.90;1.00
48328;DHT22;34136;51.022;7.082;2022-09-01T07:36:54;21.10;1.00
48328;DHT22;34136;51.022;7.082;2022-09-01T07:39:40;21.20;1.00
48328;DHT22;34136;51.022;7.082;2022-09-01T07:42:46;21.30;1.00
48328;DHT22;34136;51.022;7.082;2022-09-01T07:45:53;21.60;1.00
48328;DHT22;34136;51.022;7.082;2022-09-01T07:48:41;21.80;1.00
48328;DHT22;34136;51.022;7.082;2022-09-01T07:51:28;21.90;1.00
48328;DHT22;34136;51.022;7.082;2022-09-01T07:54:15;22.30;1.00
48328;DHT22;34136;51.022;7.082;2022-09-01T07:57:03;22.40;1.00
48328;DHT22;34136;51.022;7.082;2022-09-01T07:59:52;22.40;1.00
48328;DHT22;34136;51.022;7.082;2022-09-01T08:02:41;22.50;1.00
48328;DHT22;34136;51.022;7.082;2022-09-01T08:05:28;22.90;1.00
48328;DHT22;34136;51.022;7.082;2022-09-01T08:08:14;23.10;1.00
48328;DHT22;34136;51.022;7.082;2022-09-01T08:11:02;23.00;1.00
48328;DHT22;34136;51.022;7.082;2022-09-01T08:13:50;23.00;1.00
48328;DHT22;34136;51.022;7.082;2022-09-01T08:16:36;23.20;1.00
48328;DHT22;34136;51.022;7.082;2022-09-01T08:19:23;23.50;1.00
48328;DHT22;34136;51.022;7.082;2022-09-01T08:22:28;23.70;1.00
48328;DHT22;34136;51.022;7.082;2022-09-01T08:25:21;23.80;1.00
48328;DHT22;34136;51.022;7.082;2022-09-01T08:28:08;23.90;1.00
48328;DHT22;34136;51.022;7.082;2022-09-01T08:30:54;23.80;1.00
48328;DHT22;34136;51.022;7.082;2022-09-01T08:33:44;23.90;1.00
48328;DHT22;34136;51.022;7.082;2022-09-01T08:36:31;23.80;1.00
48328;DHT22;34136;51.022;7.082;2022-09-01T08:39:18;24.00;1.00
48328;DHT22;34136;51.022;7.082;2022-09-01T08:42:28;24.20;1.00
48328;DHT22;34136;51.022;7.082;2022-09-01T08:45:26;24.50;1.00
48328;DHT22;34136;51.022;7.082;2022-09-01T08:48:36;24.60;1.00
48328;DHT22;34136;51.022;7.082;2022-09-01T08:57:58;25.00;1.00
48328;DHT22;34136;51.022;7.082;2022-09-01T09:10:34;25.50;1.00
48328;DHT22;34136;51.022;7.082;2022-09-01T09:16:39;25.60;1.00
48328;DHT22;34136;51.022;7.082;2022-09-01T09:19:41;25.60;1.00
48328;DHT22;34136;51.022;7.082;2022-09-01T09:22:27;25.50;1.00
48328;DHT22;34136;51.022;7.082;2022-09-01T09:25:16;25.70;1.00
48328;DHT22;34136;51.022;7.082;2022-09-01T09:28:03;25.50;1.00
48328;DHT22;34136;51.022;7.082;2022-09-01T09:30:49;25.40;1.00
48328;DHT22;34136;51.022;7.082;2022-09-01T09:33:37;25.60;1.00
48328;DHT22;34136;51.022;7.082;2022-09-01T09:36:33;25.70;1.00
48328;DHT22;34136;51.022;7.082;2022-09-01T09:39:21;25.90;1.00
48328;DHT22;34136;51.022;7.082;2022-09-01T09:42:10;26.10;1.00
48328;DHT22;34136;51.022;7.082;2022-09-01T09:44:57;26.00;1.00
48328;DHT22;34136;51.022;7.082;2022-09-01T09:47:45;25.90;1.00
48328;DHT22;34136;51.022;7.082;2022-09-01T09:50:37;26.30;1.00
48328;DHT22;34136;51.022;7.082;2022-09-01T09:56:21;26.70;1.00
48328;DHT22;34136;51.022;7.082;2022-09-01T09:59:21;26.80;1.00
48328;DHT22;34136;51.022;7.082;2022-09-01T10:02:36;26.50;1.00
48328;DHT22;34136;51.022;7.082;2022-09-01T10:14:16;26.90;1.00
48328;DHT22;34136;51.022;7.082;2022-09-01T10:17:11;26.70;1.00
48328;DHT22;34136;51.022;7.082;2022-09-01T10:20:19;26.80;1.00
48328;DHT22;34136;51.022;7.082;2022-09-01T10:23:06;27.10;1.00
48328;DHT22;34136;51.022;7.082;2022-09-01T10:26:02;27.30;1.00
48328;DHT22;34136;51.022;7.082;2022-09-01T10:31:52;26.20;1.00
48328;DHT22;34136;51.022;7.082;2022-09-01T10:34:41;26.70;1.00
48328;DHT22;34136;51.022;7.082;2022-09-01T10:37:28;27.20;1.00
48328;DHT22;34136;51.022;7.082;2022-09-01T10:43:42;27.30;1.00
48328;DHT22;34136;51.022;7.082;2022-09-01T10:52:09;27.80;1.00
48328;DHT22;34136;51.022;7.082;2022-09-01T10:54:58;27.50;1.00
48328;DHT22;34136;51.022;7.082;2022-09-01T11:00:55;27.50;1.00
48328;DHT22;34136;51.022;7.082;2022-09-01T11:03:51;27.40;1.00
48328;DHT22;34136;51.022;7.082;2022-09-01T11:09:42;27.70;1.00
48328;DHT22;34136;51.022;7.082;2022-09-01T11:15:52;28.40;1.00
48328;DHT22;34136;51.022;7.082;2022-09-01T11:18:39;28.30;1.00
48328;DHT22;34136;51.022;7.082;2022-09-01T11:21:28;28.40;1.00
48328;DHT22;34136;51.022;7.082;2022-09-01T11:30:40;27.90;1.00
48328;DHT22;34136;51.022;7.082;2022-09-01T11:33:49;27.90;1.00
48328;DHT22;34136;51.022;7.082;2022-09-01T11:39:31;28.40;1.00
48328;DHT22;34136;51.022;7.082;2022-09-01T11:42:23;28.60;1.00
48328;DHT22;34136;51.022;7.082;2022-09-01T11:45:18;28.60;1.00
48328;DHT22;34136;51.022;7.082;2022-09-01T11:48:10;28.40;1.00
48328;DHT22;34136;51.022;7.082;2022-09-01T11:51:00;28.50;1.00
48328;DHT22;34136;51.022;7.082;2022-09-01T11:53:48;28.60;1.00
48328;DHT22;34136;51.022;7.082;2022-09-01T11:56:36;28.70;1.00
48328;DHT22;34136;51.022;7.082;2022-09-01T11:59:34;28.70;1.00
48328;DHT22;34136;51.022;7.082;2022-09-01T12:02:27;28.20;1.00
48328;DHT22;34136;51.022;7.082;2022-09-01T12:05:29;28.10;1.00
48328;DHT22;34136;51.022;7.082;2022-09-01T12:08:17;28.20;1.00
48328;DHT22;34136;51.022;7.082;2022-09-01T12:11:08;28.10;1.00
48328;DHT22;34136;51.022;7.082;2022-09-01T12:13:57;28.20;1.00
48328;DHT22;34136;51.022;7.082;2022-09-01T12:16:43;27.70;1.00
48328;DHT22;34136;51.022;7.082;2022-09-01T12:19:41;27.70;1.00
48328;DHT22;34136;51.022;7.082;2022-09-01T12:22:27;27.50;1.00
48328;DHT22;34136;51.022;7.082;2022-09-01T12:25:21;27.70;1.00
48328;DHT22;34136;51.022;7.082;2022-09-01T12:28:08;27.60;1.00
48328;DHT22;34136;51.022;7.082;2022-09-01T12:30:54;27.30;1.00
48328;DHT22;34136;51.022;7.082;2022-09-01T12:33:44;27.20;1.00
48328;DHT22;34136;51.022;7.082;2022-09-01T12:36:33;27.30;1.00
48328;DHT22;34136;51.022;7.082;2022-09-01T12:39:22;27.50;1.00
48328;DHT22;34136;51.022;7.082;2022-09-01T12:45:09;27.50;1.00
48328;DHT22;34136;51.022;7.082;2022-09-01T12:47:55;27.20;1.00
48328;DHT22;34136;51.022;7.082;2022-09-01T12:50:43;27.40;1.00
48328;DHT22;34136;51.022;7.082;2022-09-01T12:53:32;27.60;1.00
48328;DHT22;34136;51.022;7.082;2022-09-01T12:56:32;27.60;1.00
48328;DHT22;34136;51.022;7.082;2022-09-01T12:59:22;27.80;1.00
48328;DHT22;34136;51.022;7.082;2022-09-01T13:05:41;28.40;1.00
48328;DHT22;34136;51.022;7.082;2022-09-01T13:08:31;28.50;1.00
48328;DHT22;34136;51.022;7.082;2022-09-01T13:11:18;28.30;1.00
48328;DHT22;34136;51.022;7.082;2022-09-01T13:14:05;28.60;1.00
48328;DHT22;34136;51.022;7.082;2022-09-01T13:16:51;28.40;1.00
48328;DHT22;34136;51.022;7.082;2022-09-01T13:19:38;28.50;1.00
48328;DHT22;34136;51.022;7.082;2022-09-01T13:22:24;28.60;1.00
48328;DHT22;34136;51.022;7.082;2022-09-01T13:25:13;28.90;1.00
48328;DHT22;34136;51.022;7.082;2022-09-01T13:28:00;28.80;1.00
48328;DHT22;34136;51.022;7.082;2022-09-01T13:30:52;29.00;1.00
48328;DHT22;34136;51.022;7.082;2022-09-01T13:33:39;28.80;1.00
48328;DHT22;34136;51.022;7.082;2022-09-01T13:36:26;28.80;1.00
48328;DHT22;34136;51.022;7.082;2022-09-01T13:39:12;29.20;1.00
48328;DHT22;34136;51.022;7.082;2022-09-01T13:41:58;29.40;1.00
48328;DHT22;34136;51.022;7.082;2022-09-01T13:44:45;29.00;1.00
48328;DHT22;34136;51.022;7.082;2022-09-01T13:47:31;29.00;1.00
48328;DHT22;34136;51.022;7.082;2022-09-01T13:50:19;29.30;1.00
48328;DHT22;34136;51.022;7.082;2022-09-01T13:53:06;29.20;1.00
48328;DHT22;34136;51.022;7.082;2022-09-01T13:55:53;29.50;1.00
48328;DHT22;34136;51.022;7.082;2022-09-01T13:58:39;29.20;1.00
48328;DHT22;34136;51.022;7.082;2022-09-01T14:01:25;28.90;1.00
48328;DHT22;34136;51.022;7.082;2022-09-01T14:04:12;28.90;1.00
48328;DHT22;34136;51.022;7.082;2022-09-01T14:06:58;28.70;1.00
48328;DHT22;34136;51.022;7.082;2022-09-01T14:09:45;28.60;1.00
48328;DHT22;34136;51.022;7.082;2022-09-01T14:12:32;28.30;1.00
48328;DHT22;34136;51.022;7.082;2022-09-01T14:15:20;28.50;1.00
48328;DHT22;34136;51.022;7.082;2022-09-01T14:18:07;28.60;1.00
48328;DHT22;34136;51.022;7.082;2022-09-01T14:20:53;28.70;1.00
48328;DHT22;34136;51.022;7.082;2022-09-01T14:23:42;28.80;1.00
48328;DHT22;34136;51.022;7.082;2022-09-01T14:26:29;28.70;1.00
48328;DHT22;34136;51.022;7.082;2022-09-01T14:29:16;29.00;1.00
48328;DHT22;34136;51.022;7.082;2022-09-01T14:32:02;29.10;1.00
48328;DHT22;34136;51.022;7.082;2022-09-01T14:34:48;29.20;1.00
48328;DHT22;34136;51.022;7.082;2022-09-01T14:37:37;28.50;1.00
48328;DHT22;34136;51.022;7.082;2022-09-01T14:40:24;28.60;1.00
48328;DHT22;34136;51.022;7.082;2022-09-01T14:43:11;28.80;1.00
48328;DHT22;34136;51.022;7.082;2022-09-01T14:46:05;29.10;1.00
48328;DHT22;34136;51.022;7.082;2022-09-01T14:48:52;29.00;1.00
48328;DHT22;34136;51.022;7.082;2022-09-01T14:51:38;28.90;1.00
48328;DHT22;34136;51.022;7.082;2022-09-01T14:54:24;28.70;1.00
48328;DHT22;34136;51.022;7.082;2022-09-01T14:57:11;28.70;1.00
48328;DHT22;34136;51.022;7.082;2022-09-01T14:59:58;28.80;1.00
48328;DHT22;34136;51.022;7.082;2022-09-01T15:02:45;28.70;1.00
48328;DHT22;34136;51.022;7.082;2022-09-01T15:05:31;28.60;1.00
48328;DHT22;34136;51.022;7.082;2022-09-01T15:08:18;28.60;1.00
48328;DHT22;34136;51.022;7.082;2022-09-01T15:11:15;28.40;1.00
48328;DHT22;34136;51.022;7.082;2022-09-01T15:14:03;28.50;1.00
48328;DHT22;34136;51.022;7.082;2022-09-01T15:16:49;28.40;1.00
48328;DHT22;34136;51.022;7.082;2022-09-01T15:19:35;28.40;1.00
48328;DHT22;34136;51.022;7.082;2022-09-01T15:22:21;28.10;1.00
48328;DHT22;34136;51.022;7.082;2022-09-01T15:25:08;28.10;1.00
48328;DHT22;34136;51.022;7.082;2022-09-01T15:27:54;27.90;1.00
48328;DHT22;34136;51.022;7.082;2022-09-01T15:30:41;27.80;1.00
48328;DHT22;34136;51.022;7.082;2022-09-01T15:33:27;27.70;1.00
48328;DHT22;34136;51.022;7.082;2022-09-01T15:36:16;27.90;1.00
48328;DHT22;34136;51.022;7.082;2022-09-01T15:39:02;28.20;1.00
48328;DHT22;34136;51.022;7.082;2022-09-01T15:41:49;28.20;1.00
48328;DHT22;34136;51.022;7.082;2022-09-01T15:44:35;28.20;1.00
48328;DHT22;34136;51.022;7.082;2022-09-01T15:47:21;28.20;1.00
48328;DHT22;34136;51.022;7.082;2022-09-01T15:50:10;28.20;1.00
48328;DHT22;34136;51.022;7.082;2022-09-01T15:53:00;28.30;1.00
48328;DHT22;34136;51.022;7.082;2022-09-01T15:55:47;28.30;1.00
48328;DHT22;34136;51.022;7.082;2022-09-01T15:58:34;28.10;1.00
48328;DHT22;34136;51.022;7.082;2022-09-01T16:01:20;28.20;1.00
48328;DHT22;34136;51.022;7.082;2022-09-01T16:07:14;28.00;1.00
48328;DHT22;34136;51.022;7.082;2022-09-01T16:10:01;27.90;1.00
48328;DHT22;34136;51.022;7.082;2022-09-01T16:12:47;28.00;1.00
48328;DHT22;34136;51.022;7.082;2022-09-01T16:15:34;28.10;1.00
48328;DHT22;34136;51.022;7.082;2022-09-01T16:18:27;28.10;1.00
48328;DHT22;34136;51.022;7.082;2022-09-01T16:24:22;27.70;1.00
48328;DHT22;34136;51.022;7.082;2022-09-01T16:27:13;27.50;1.00
48328;DHT22;34136;51.022;7.082;2022-09-01T16:30:11;27.50;1.00
48328;DHT22;34136;51.022;7.082;2022-09-01T16:33:02;27.60;1.00
48328;DHT22;34136;51.022;7.082;2022-09-01T16:36:01;27.50;1.00
48328;DHT22;34136;51.022;7.082;2022-09-01T16:44:56;27.40;1.00
48328;DHT22;34136;51.022;7.082;2022-09-01T16:51:10;27.30;1.00
48328;DHT22;34136;51.022;7.082;2022-09-01T17:00:07;26.80;1.00
48328;DHT22;34136;51.022;7.082;2022-09-01T17:03:11;26.70;1.00
48328;DHT22;34136;51.022;7.082;2022-09-01T17:06:12;26.70;1.00
48328;DHT22;34136;51.022;7.082;2022-09-01T17:09:10;26.70;1.00
48328;DHT22;34136;51.022;7.082;2022-09-01T17:15:02;26.50;1.00
48328;DHT22;34136;51.022;7.082;2022-09-01T17:17:50;26.50;1.00
48328;DHT22;34136;51.022;7.082;2022-09-01T17:20:46;26.50;1.00
48328;DHT22;34136;51.022;7.082;2022-09-01T17:23:37;26.50;1.00
48328;DHT22;34136;51.022;7.082;2022-09-01T17:26:26;26.40;1.00
48328;DHT22;34136;51.022;7.082;2022-09-01T17:29:19;26.30;1.00
48328;DHT22;34136;51.022;7.082;2022-09-01T17:41:33;26.00;1.00
48328;DHT22;34136;51.022;7.082;2022-09-01T17:44:36;26.00;1.00
48328;DHT22;34136;51.022;7.082;2022-09-01T17:51:24;25.80;1.00
48328;DHT22;34136;51.022;7.082;2022-09-01T17:54:35;25.70;1.00
48328;DHT22;34136;51.022;7.082;2022-09-01T18:00:48;25.50;1.00
48328;DHT22;34136;51.022;7.082;2022-09-01T18:03:51;25.30;1.00
48328;DHT22;34136;51.022;7.082;2022-09-01T18:06:50;25.20;1.00
48328;DHT22;34136;51.022;7.082;2022-09-01T18:09:44;25.20;1.00
48328;DHT22;34136;51.022;7.082;2022-09-01T18:12:34;25.00;1.00
48328;DHT22;34136;51.022;7.082;2022-09-01T18:15:23;24.80;1.00
48328;DHT22;34136;51.022;7.082;2022-09-01T18:21:20;24.50;1.00
48328;DHT22;34136;51.022;7.082;2022-09-01T18:24:16;24.40;1.00
48328;DHT22;34136;51.022;7.082;2022-09-01T18:27:03;24.30;1.00
48328;DHT22;34136;51.022;7.082;2022-09-01T18:29:50;24.20;1.00
48328;DHT22;34136;51.022;7.082;2022-09-01T18:32:56;24.00;1.00
48328;DHT22;34136;51.022;7.082;2022-09-01T18:36:01;23.80;1.00
48328;DHT22;34136;51.022;7.082;2022-09-01T18:45:00;23.40;1.00
48328;DHT22;34136;51.022;7.082;2022-09-01T18:50:50;22.90;1.00
48328;DHT22;34136;51.022;7.082;2022-09-01T19:00:25;22.30;1.00
48328;DHT22;34136;51.022;7.082;2022-09-01T19:03:28;22.40;1.00
48328;DHT22;34136;51.022;7.082;2022-09-01T19:06:26;22.40;1.00
48328;DHT22;34136;51.022;7.082;2022-09-01T19:09:26;22.30;1.00
48328;DHT22;34136;51.022;7.082;2022-09-01T19:15:29;22.00;1.00
48328;DHT22;34136;51.022;7.082;2022-09-01T19:21:23;21.70;1.00
48328;DHT22;34136;51.022;7.082;2022-09-01T19:24:14;21.60;1.00
48328;DHT22;34136;51.022;7.082;2022-09-01T19:27:15;21.50;1.00
48328;DHT22;34136;51.022;7.082;2022-09-01T19:30:04;21.40;1.00
48328;DHT22;34136;51.022;7.082;2022-09-01T19:32:51;21.30;1.00
48328;DHT22;34136;51.022;7.082;2022-09-01T19:35:38;21.30;1.00
48328;DHT22;34136;51.022;7.082;2022-09-01T19:38:26;21.20;1.00
48328;DHT22;34136;51.022;7.082;2022-09-01T19:41:29;21.30;1.00
48328;DHT22;34136;51.022;7.082;2022-09-01T19:47:56;20.80;1.00
48328;DHT22;34136;51.022;7.082;2022-09-01T19:54:22;20.70;1.00
48328;DHT22;34136;51.022;7.082;2022-09-01T19:57:31;20.50;1.00
48328;DHT22;34136;51.022;7.082;2022-09-01T20:00:34;20.20;1.00
48328;DHT22;34136;51.022;7.082;2022-09-01T20:03:38;20.00;1.00
48328;DHT22;34136;51.022;7.082;2022-09-01T20:06:35;20.00;1.00
48328;DHT22;34136;51.022;7.082;2022-09-01T20:09:36;20.00;1.00
48328;DHT22;34136;51.022;7.082;2022-09-01T20:15:50;19.80;1.00
48328;DHT22;34136;51.022;7.082;2022-09-01T20:18:47;19.70;1.00
48328;DHT22;34136;51.022;7.082;2022-09-01T20:21:36;19.70;1.00
48328;DHT22;34136;51.022;7.082;2022-09-01T20:24:33;19.70;1.00
48328;DHT22;34136;51.022;7.082;2022-09-01T20:27:31;19.60;1.00
48328;DHT22;34136;51.022;7.082;2022-09-01T20:30:23;19.60;1.00
48328;DHT22;34136;51.022;7.082;2022-09-01T20:33:12;19.70;1.00
48328;DHT22;34136;51.022;7.082;2022-09-01T20:36:26;19.60;1.00